createdAt,value
2024-01-11T00:00:25.841Z,97136.84
2024-01-11T00:01:58.976Z,97137.44
2024-01-11T00:03:30.718Z,97139.16
2024-01-11T00:05:03.518Z,97141.19
2024-01-11T00:06:41.424Z,97144.75
2024-01-11T00:08:13.408Z,97140.03
2024-01-11T00:09:45.132Z,97140.50
2024-01-11T00:11:18.569Z,97138.00
2024-01-11T00:12:50.444Z,97126.91
2024-01-11T00:14:22.146Z,97120.00
2024-01-11T00:15:54.324Z,97128.81
2024-01-11T00:17:27.423Z,97123.16
2024-01-11T00:18:59.176Z,97126.31
2024-01-11T00:20:30.923Z,97116.91
2024-01-11T00:22:03.001Z,97121.72
2024-01-11T00:23:34.751Z,97125.44
2024-01-11T00:25:07.054Z,97125.75
2024-01-11T00:26:38.809Z,97131.44
2024-01-11T00:28:10.668Z,97120.31
2024-01-11T00:29:42.294Z,97128.91
2024-01-11T00:31:14.055Z,97136.50
2024-01-11T00:32:47.100Z,97130.56
2024-01-11T00:34:18.914Z,97133.56
2024-01-11T00:35:50.621Z,97137.97
2024-01-11T00:37:22.299Z,97127.47
2024-01-11T00:38:54.048Z,97132.78
2024-01-11T00:40:25.814Z,97137.41
2024-01-11T00:41:57.428Z,97130.28
2024-01-11T00:43:29.030Z,97128.03
2024-01-11T00:45:00.669Z,97128.16
2024-01-11T00:46:32.272Z,97135.25
2024-01-11T00:48:06.196Z,97128.03
2024-01-11T00:49:37.921Z,97129.94
2024-01-11T00:51:09.544Z,97134.38
2024-01-11T00:52:41.206Z,97131.34
2024-01-11T00:54:12.952Z,97134.13
2024-01-11T00:55:44.601Z,97136.63
2024-01-11T00:57:16.264Z,97139.69
2024-01-11T00:58:48.059Z,97134.69
2024-01-11T01:00:19.859Z,97130.88
2024-01-11T01:01:51.615Z,97127.69
2024-01-11T01:03:24.684Z,97129.16
2024-01-11T01:04:56.576Z,97128.59
2024-01-11T01:06:28.289Z,97127.25
2024-01-11T01:08:00.035Z,97128.84
2024-01-11T01:09:31.749Z,97134.94
2024-01-11T01:11:03.618Z,97137.19
2024-01-11T01:12:35.241Z,97134.03
2024-01-11T01:14:06.937Z,97135.63
2024-01-11T01:15:38.572Z,97138.75
2024-01-11T01:17:10.255Z,97139.66
2024-01-11T01:18:43.335Z,97142.63
2024-01-11T01:20:15.769Z,97142.28
2024-01-11T01:21:47.572Z,97140.00
2024-01-11T01:23:19.416Z,97140.16
2024-01-11T01:24:51.303Z,97148.50
2024-01-11T01:26:22.982Z,97146.78
2024-01-11T01:27:54.682Z,97141.69
2024-01-11T01:29:26.382Z,97149.56
2024-01-11T01:30:58.097Z,97150.31
2024-01-11T01:32:30.131Z,97151.13
2024-01-11T01:34:03.615Z,97160.97
2024-01-11T01:35:36.240Z,97161.63
2024-01-11T01:37:07.919Z,97158.69
2024-01-11T01:38:39.790Z,97158.13
2024-01-11T01:40:12.243Z,97160.16
2024-01-11T01:41:43.956Z,97156.31
2024-01-11T01:43:15.565Z,97161.28
2024-01-11T01:44:49.258Z,97156.75
2024-01-11T01:46:24.273Z,97163.66
2024-01-11T01:47:56.673Z,97158.69
2024-01-11T01:49:29.816Z,97160.72
2024-01-11T01:51:01.390Z,97153.13
2024-01-11T01:52:33.384Z,97160.50
2024-01-11T01:54:05.270Z,97152.69
2024-01-11T01:55:36.926Z,97165.16
2024-01-11T01:57:08.797Z,97167.75
2024-01-11T01:58:40.386Z,97164.44
2024-01-11T02:00:13.579Z,97160.94
2024-01-11T02:01:45.233Z,97169.06
2024-01-11T02:03:16.885Z,97167.63
2024-01-11T02:04:50.389Z,97169.53
2024-01-11T02:06:23.597Z,97169.75
2024-01-11T02:07:55.353Z,97166.03
2024-01-11T02:09:27.557Z,97173.16
2024-01-11T02:10:59.452Z,97172.25
2024-01-11T02:12:31.143Z,97168.75
2024-01-11T02:14:02.811Z,97179.28
2024-01-11T02:15:34.437Z,97178.13
2024-01-11T02:17:06.341Z,97177.00
2024-01-11T02:18:38.132Z,97185.28
2024-01-11T02:20:12.204Z,97180.41
2024-01-11T02:21:44.398Z,97186.03
2024-01-11T02:23:18.255Z,97190.03
2024-01-11T02:24:51.259Z,97185.38
2024-01-11T02:26:23.697Z,97180.28
2024-01-11T02:27:55.530Z,97183.69
2024-01-11T02:29:27.213Z,97185.06
2024-01-11T02:30:58.857Z,97179.59
2024-01-11T02:32:30.519Z,97182.78
2024-01-11T02:34:02.268Z,97182.19
2024-01-11T02:35:34.034Z,97177.25
2024-01-11T02:37:05.704Z,97178.16
2024-01-11T02:38:37.376Z,97173.38
2024-01-11T02:40:11.473Z,97177.22
2024-01-11T02:41:43.739Z,97178.13
2024-01-11T02:43:15.438Z,97187.75
2024-01-11T02:44:47.985Z,97185.50
2024-01-11T02:46:19.756Z,97175.88
2024-01-11T02:47:51.545Z,97181.97
2024-01-11T02:49:23.392Z,97175.78
2024-01-11T02:50:55.226Z,97182.19
2024-01-11T02:52:26.858Z,97177.69
2024-01-11T02:53:59.011Z,97176.53
2024-01-11T02:55:32.077Z,97173.81
2024-01-11T02:57:04.318Z,97177.13
2024-01-11T02:58:35.977Z,97171.94
2024-01-11T03:00:08.991Z,97169.34
2024-01-11T03:01:40.611Z,97169.53
2024-01-11T03:03:12.432Z,97172.81
2024-01-11T03:04:44.093Z,97168.88
2024-01-11T03:06:15.867Z,97167.16
2024-01-11T03:07:47.556Z,97167.84
2024-01-11T03:09:19.153Z,97158.44
2024-01-11T03:10:52.230Z,97159.47
2024-01-11T03:12:24.091Z,97169.88
2024-01-11T03:13:56.758Z,97164.91
2024-01-11T03:15:28.439Z,97175.09
2024-01-11T03:17:00.070Z,97166.38
2024-01-11T03:18:32.526Z,97172.47
2024-01-11T03:20:05.878Z,97165.34
2024-01-11T03:21:42.297Z,97168.38
2024-01-11T03:23:13.986Z,97168.63
2024-01-11T03:24:45.680Z,97173.13
2024-01-11T03:26:18.895Z,97174.13
2024-01-11T03:27:50.573Z,97172.50
2024-01-11T03:29:22.187Z,97170.22
2024-01-11T03:30:53.906Z,97166.13
2024-01-11T03:32:25.754Z,97160.63
2024-01-11T03:33:57.548Z,97171.16
2024-01-11T03:35:29.250Z,97166.84
2024-01-11T03:37:00.987Z,97170.88
2024-01-11T03:38:32.795Z,97172.00
2024-01-11T03:40:05.455Z,97170.78
2024-01-11T03:41:38.513Z,97174.31
2024-01-11T03:43:10.158Z,97170.78
2024-01-11T03:44:41.949Z,97167.16
2024-01-11T03:46:13.703Z,97172.47
2024-01-11T03:47:45.435Z,97165.72
2024-01-11T03:49:17.325Z,97172.59
2024-01-11T03:50:49.054Z,97173.03
2024-01-11T03:52:20.816Z,97170.06
2024-01-11T03:53:52.713Z,97172.75
2024-01-11T03:55:24.450Z,97163.16
2024-01-11T03:56:58.096Z,97167.47
2024-01-11T03:58:29.760Z,97165.53
2024-01-11T04:00:01.395Z,97164.66
2024-01-11T04:01:32.987Z,97161.94
2024-01-11T04:03:05.058Z,97165.19
2024-01-11T04:04:36.757Z,97161.34
2024-01-11T04:06:08.439Z,97161.25
2024-01-11T04:07:40.122Z,97165.66
2024-01-11T04:09:14.022Z,97157.59
2024-01-11T04:10:45.765Z,97159.53
2024-01-11T04:12:18.724Z,97161.34
2024-01-11T04:13:50.332Z,97163.38
2024-01-11T04:15:22.124Z,97154.66
2024-01-11T04:16:53.944Z,97163.50
2024-01-11T04:18:25.654Z,97159.19
2024-01-11T04:19:59.309Z,97152.09
2024-01-11T04:21:31.003Z,97157.28
2024-01-11T04:23:02.779Z,97156.13
2024-01-11T04:24:34.504Z,97150.19
2024-01-11T04:26:06.150Z,97155.22
2024-01-11T04:27:40.690Z,97155.56
2024-01-11T04:29:12.532Z,97157.63
2024-01-11T04:30:44.210Z,97160.75
2024-01-11T04:32:15.830Z,97159.53
2024-01-11T04:33:47.801Z,97162.66
2024-01-11T04:35:19.520Z,97164.06
2024-01-11T04:36:51.364Z,97162.47
2024-01-11T04:38:23.129Z,97157.72
2024-01-11T04:39:54.873Z,97163.28
2024-01-11T04:41:26.760Z,97160.13
2024-01-11T04:42:59.759Z,97161.81
2024-01-11T04:44:31.496Z,97155.56
2024-01-11T04:46:03.199Z,97161.72
2024-01-11T04:47:34.933Z,97152.41
2024-01-11T04:49:06.769Z,97153.44
2024-01-11T04:50:38.526Z,97154.00
2024-01-11T04:52:10.184Z,97153.44
2024-01-11T04:53:41.998Z,97153.09
2024-01-11T04:55:13.750Z,97154.19
2024-01-11T04:56:45.820Z,97146.25
2024-01-11T04:58:19.201Z,97149.22
2024-01-11T04:59:50.847Z,97154.75
2024-01-11T05:01:22.865Z,97152.88
2024-01-11T05:02:54.654Z,97146.09
2024-01-11T05:04:26.356Z,97146.16
2024-01-11T05:05:58.103Z,97146.28
2024-01-11T05:07:29.737Z,97145.34
2024-01-11T05:09:01.358Z,97148.53
2024-01-11T05:10:33.069Z,97146.69
2024-01-11T05:12:05.839Z,97141.16
2024-01-11T05:13:38.790Z,97147.72
2024-01-11T05:15:11.173Z,97138.75
2024-01-11T05:16:43.845Z,97147.50
2024-01-11T05:18:15.612Z,97146.88
2024-01-11T05:19:47.300Z,97143.31
2024-01-11T05:21:18.963Z,97140.56
2024-01-11T05:22:50.632Z,97154.09
2024-01-11T05:24:22.616Z,97147.59
2024-01-11T05:25:54.242Z,97144.19
2024-01-11T05:27:25.853Z,97149.16
2024-01-11T05:29:02.015Z,97150.13
2024-01-11T05:30:34.286Z,97153.16
2024-01-11T05:32:07.071Z,97144.78
2024-01-11T05:33:39.166Z,97146.72
2024-01-11T05:35:11.619Z,97146.38
2024-01-11T05:36:43.262Z,97155.00
2024-01-11T05:38:14.906Z,97148.53
2024-01-11T05:39:46.536Z,97149.69
2024-01-11T05:41:18.224Z,97154.53
2024-01-11T05:42:49.891Z,97155.47
2024-01-11T05:44:22.872Z,97162.28
2024-01-11T05:45:54.490Z,97155.09
2024-01-11T05:47:26.335Z,97160.56
2024-01-11T05:48:58.034Z,97159.50
2024-01-11T05:50:29.694Z,97162.09
2024-01-11T05:52:01.304Z,97155.56
2024-01-11T05:53:36.391Z,97173.09
2024-01-11T05:55:08.387Z,97172.53
2024-01-11T05:56:40.045Z,97182.09
2024-01-11T05:58:11.757Z,97176.81
2024-01-11T05:59:48.912Z,97187.00
2024-01-11T06:01:20.989Z,97179.03
2024-01-11T06:02:53.071Z,97181.09
2024-01-11T06:04:24.738Z,97184.16
2024-01-11T06:05:56.857Z,97186.13
2024-01-11T06:07:29.244Z,97181.97
2024-01-11T06:09:00.890Z,97174.03
2024-01-11T06:10:32.577Z,97180.59
2024-01-11T06:12:04.495Z,97175.50
2024-01-11T06:13:36.130Z,97180.59
2024-01-11T06:15:10.782Z,97184.69
2024-01-11T06:16:43.540Z,97190.63
2024-01-11T06:18:15.404Z,97185.25
2024-01-11T06:19:47.166Z,97185.16
2024-01-11T06:21:18.823Z,97190.47
2024-01-11T06:22:50.569Z,97183.59
2024-01-11T06:24:22.210Z,97185.47
2024-01-11T06:25:53.858Z,97190.69
2024-01-11T06:27:26.049Z,97189.56
2024-01-11T06:28:57.774Z,97190.78
2024-01-11T06:30:31.040Z,97190.69
2024-01-11T06:32:03.393Z,97196.00
2024-01-11T06:33:38.176Z,97194.63
2024-01-11T06:35:10.742Z,97197.72
2024-01-11T06:36:42.447Z,97199.06
2024-01-11T06:38:14.150Z,97199.06
2024-01-11T06:39:45.836Z,97194.97
2024-01-11T06:41:17.488Z,97194.63
2024-01-11T06:42:49.116Z,97195.22
2024-01-11T06:44:20.786Z,97204.63
2024-01-11T06:45:54.139Z,97201.22
2024-01-11T06:47:26.067Z,97201.91
2024-01-11T06:48:57.962Z,97197.63
2024-01-11T06:50:30.082Z,97200.22
2024-01-11T06:52:01.960Z,97203.38
2024-01-11T06:53:34.022Z,97213.69
2024-01-11T06:55:07.030Z,97206.66
2024-01-11T06:56:38.795Z,97222.09
2024-01-11T06:58:10.526Z,97225.03
2024-01-11T06:59:42.207Z,97224.91
2024-01-11T07:01:15.608Z,97218.25
2024-01-11T07:02:47.501Z,97213.16
2024-01-11T07:04:19.480Z,97219.13
2024-01-11T07:05:51.198Z,97227.72
2024-01-11T07:07:22.944Z,97230.13
2024-01-11T07:08:54.608Z,97241.81
2024-01-11T07:10:26.329Z,97236.34
2024-01-11T07:11:57.943Z,97243.97
2024-01-11T07:13:29.581Z,97248.97
2024-01-11T07:15:01.236Z,97239.56
2024-01-11T07:16:34.261Z,97244.44
2024-01-11T07:18:06.074Z,97245.22
2024-01-11T07:19:38.061Z,97241.91
2024-01-11T07:21:09.849Z,97243.50
2024-01-11T07:22:42.590Z,97239.88
2024-01-11T07:24:14.543Z,97237.06
2024-01-11T07:25:46.346Z,97239.56
2024-01-11T07:27:17.998Z,97244.69
2024-01-11T07:28:49.592Z,97240.34
2024-01-11T07:30:21.397Z,97235.00
2024-01-11T07:31:58.571Z,97247.19
2024-01-11T07:33:30.570Z,97244.72
2024-01-11T07:35:02.937Z,97248.34
2024-01-11T07:36:34.708Z,97233.88
2024-01-11T07:38:06.508Z,97248.59
2024-01-11T07:39:38.224Z,97242.25
2024-01-11T07:41:09.963Z,97247.09
2024-01-11T07:42:41.703Z,97245.84
2024-01-11T07:44:13.348Z,97245.50
2024-01-11T07:45:44.998Z,97252.97
2024-01-11T07:47:18.742Z,97249.72
2024-01-11T07:48:50.485Z,97256.53
2024-01-11T07:50:22.314Z,97261.06
2024-01-11T07:51:53.989Z,97259.00
2024-01-11T07:53:25.748Z,97266.84
2024-01-11T07:54:58.540Z,97259.06
2024-01-11T07:56:30.500Z,97265.81
2024-01-11T07:58:02.137Z,97257.25
2024-01-11T07:59:34.099Z,97269.34
2024-01-11T08:01:05.860Z,97262.31
2024-01-11T08:02:39.096Z,97269.09
2024-01-11T08:04:10.980Z,97264.72
2024-01-11T08:05:44.260Z,97274.34
2024-01-11T08:07:16.136Z,97270.72
2024-01-11T08:08:52.736Z,97277.50
2024-01-11T08:10:24.724Z,97279.78
2024-01-11T08:11:57.742Z,97278.19
2024-01-11T08:13:32.148Z,97278.06
2024-01-11T08:15:04.443Z,97274.91
2024-01-11T08:16:36.327Z,97283.25
2024-01-11T08:18:09.436Z,97273.63
2024-01-11T08:19:41.139Z,97282.34
2024-01-11T08:21:12.950Z,97272.97
2024-01-11T08:22:44.712Z,97277.75
2024-01-11T08:24:16.382Z,97277.28
2024-01-11T08:25:48.322Z,97278.78
2024-01-11T08:27:20.301Z,97291.56
2024-01-11T08:28:52.374Z,97292.78
2024-01-11T08:30:24.419Z,97288.72
2024-01-11T08:31:56.216Z,97287.34
2024-01-11T08:33:29.676Z,97294.59
2024-01-11T08:35:01.753Z,97302.19
2024-01-11T08:36:36.414Z,97301.63
2024-01-11T08:38:08.171Z,97301.50
2024-01-11T08:39:41.940Z,97308.88
2024-01-11T08:41:14.435Z,97299.81
2024-01-11T08:42:46.183Z,97300.03
2024-01-11T08:44:19.478Z,97297.91
2024-01-11T08:45:52.427Z,97304.56
2024-01-11T08:47:24.378Z,97299.59
2024-01-11T08:48:58.229Z,97301.16
2024-01-11T08:50:30.011Z,97300.81
2024-01-11T08:52:04.346Z,97304.00
2024-01-11T08:53:36.552Z,97301.53
2024-01-11T08:55:08.969Z,97301.41
2024-01-11T08:56:42.200Z,97299.94
2024-01-11T08:58:14.061Z,97303.22
2024-01-11T08:59:46.333Z,97294.72
2024-01-11T09:01:19.381Z,97302.19
2024-01-11T09:02:51.141Z,97306.84
2024-01-11T09:04:24.790Z,97308.88
2024-01-11T09:05:59.671Z,97313.06
2024-01-11T09:07:31.551Z,97318.63
2024-01-11T09:09:03.409Z,97312.97
2024-01-11T09:10:35.120Z,97306.63
2024-01-11T09:12:07.913Z,97307.31
2024-01-11T09:13:41.463Z,97304.78
2024-01-11T09:15:13.763Z,97307.63
2024-01-11T09:16:46.984Z,97304.66
2024-01-11T09:18:19.255Z,97310.78
2024-01-11T09:19:53.185Z,97306.63
2024-01-11T09:21:24.891Z,97305.47
2024-01-11T09:22:56.636Z,97313.06
2024-01-11T09:24:31.130Z,97315.09
2024-01-11T09:26:22.460Z,97311.03
2024-01-11T09:27:57.652Z,97321.09
2024-01-11T09:29:29.421Z,97326.09
2024-01-11T09:31:01.287Z,97320.09
2024-01-11T09:36:44.317Z,97328.69
2024-01-11T09:38:15.993Z,97324.63
2024-01-11T09:39:48.028Z,97325.97
2024-01-11T09:41:19.875Z,97323.91
2024-01-11T09:43:05.208Z,97321.31
2024-01-11T09:44:38.620Z,97330.28
2024-01-11T09:46:11.139Z,97329.91
2024-01-11T09:47:42.794Z,97333.69
2024-01-11T09:49:14.558Z,97337.28
2024-01-11T09:50:46.400Z,97334.69
2024-01-11T09:52:20.574Z,97336.84
2024-01-11T09:53:52.484Z,97336.47
2024-01-11T09:55:24.115Z,97340.13
2024-01-11T09:56:55.855Z,97329.69
2024-01-11T09:58:27.832Z,97347.13
2024-01-11T09:59:59.662Z,97348.81
2024-01-11T10:01:31.255Z,97352.44
2024-01-11T10:03:03.051Z,97352.34
2024-01-11T10:04:34.910Z,97359.38
2024-01-11T10:06:07.055Z,97349.50
2024-01-11T10:07:40.198Z,97353.78
2024-01-11T10:09:11.870Z,97347.78
2024-01-11T10:13:17.356Z,97369.00
2024-01-11T10:14:49.143Z,97374.13
2024-01-11T10:16:20.918Z,97370.50
2024-01-11T10:17:53.186Z,97369.13
2024-01-11T10:19:25.865Z,97369.47
2024-01-11T10:20:58.082Z,97369.59
2024-01-11T10:22:29.819Z,97360.31
2024-01-11T10:24:05.496Z,97351.00
2024-01-11T10:25:37.274Z,97352.81
2024-01-11T10:27:10.132Z,97353.78
2024-01-11T10:28:44.777Z,97350.63
2024-01-11T10:30:18.208Z,97356.19
2024-01-11T10:31:51.649Z,97357.69
2024-01-11T10:33:23.713Z,97349.09
2024-01-11T10:34:55.760Z,97355.19
2024-01-11T10:36:27.429Z,97352.25
2024-01-11T10:37:59.225Z,97346.94
2024-01-11T10:39:32.567Z,97353.94
2024-01-11T10:41:05.963Z,97352.81
2024-01-11T10:42:38.532Z,97352.91
2024-01-11T10:44:14.146Z,97353.09
2024-01-11T10:45:49.077Z,97350.22
2024-01-11T10:47:21.080Z,97347.69
2024-01-11T10:48:54.158Z,97345.88
2024-01-11T10:50:26.273Z,97351.56
2024-01-11T10:52:00.102Z,97356.19
2024-01-11T10:53:36.164Z,97347.47
2024-01-11T10:55:09.478Z,97344.25
2024-01-11T10:56:43.271Z,97341.81
2024-01-11T10:58:15.424Z,97328.00
2024-01-11T10:59:47.200Z,97336.16
2024-01-11T11:01:19.580Z,97323.38
2024-01-11T11:02:52.214Z,97328.94
2024-01-11T11:04:24.151Z,97324.22
2024-01-11T11:05:58.574Z,97326.03
2024-01-11T11:07:30.291Z,97327.47
2024-01-11T11:09:02.132Z,97311.34
2024-01-11T11:10:35.500Z,97311.25
2024-01-11T11:12:08.220Z,97311.41
2024-01-11T11:13:39.991Z,97308.16
2024-01-11T11:15:12.863Z,97309.34
2024-01-11T11:16:44.940Z,97304.53
2024-01-11T11:18:17.326Z,97303.91
2024-01-11T11:19:49.132Z,97315.28
2024-01-11T11:21:22.205Z,97310.06
2024-01-11T11:23:05.069Z,97303.16
2024-01-11T11:24:37.125Z,97299.16
2024-01-11T11:26:15.378Z,97294.63
2024-01-11T11:27:47.360Z,97292.03
2024-01-11T11:29:19.209Z,97294.09
2024-01-11T11:30:53.613Z,97291.22
2024-01-11T11:32:36.434Z,97276.34
2024-01-11T11:34:08.401Z,97269.16
2024-01-11T11:35:40.315Z,97272.63
2024-01-11T11:37:12.014Z,97271.16
2024-01-11T11:38:43.860Z,97282.34
2024-01-11T11:40:15.576Z,97284.22
2024-01-11T11:43:28.004Z,97278.28
2024-01-11T11:44:59.642Z,97277.66
2024-01-11T11:46:32.534Z,97286.81
2024-01-11T11:48:21.098Z,97284.53
2024-01-11T11:50:01.020Z,97280.66
2024-01-11T11:51:32.798Z,97279.88
2024-01-11T11:53:04.715Z,97274.09
2024-01-11T11:54:36.701Z,97276.50
2024-01-11T11:56:10.668Z,97274.31
2024-01-11T11:57:42.853Z,97268.50
2024-01-11T11:59:16.344Z,97271.38
2024-01-11T12:00:48.923Z,97273.88
2024-01-11T12:02:22.085Z,97272.91
2024-01-11T12:03:53.927Z,97270.53
2024-01-11T12:05:25.682Z,97274.56
2024-01-11T12:06:57.571Z,97265.25
2024-01-11T12:08:29.269Z,97271.72
2024-01-11T12:10:00.979Z,97269.66
2024-01-11T12:11:34.292Z,97275.28
2024-01-11T12:13:05.947Z,97274.00
2024-01-11T12:14:39.321Z,97268.16
2024-01-11T12:16:11.580Z,97264.41
2024-01-11T12:17:43.890Z,97264.88
2024-01-11T12:19:16.128Z,97260.72
2024-01-11T12:20:48.211Z,97265.56
2024-01-11T12:22:20.359Z,97263.41
2024-01-11T12:23:52.217Z,97264.47
2024-01-11T12:25:24.015Z,97266.59
2024-01-11T12:26:57.054Z,97263.75
2024-01-11T12:28:29.004Z,97266.25
2024-01-11T12:30:02.457Z,97256.16
2024-01-11T12:31:34.597Z,97270.84
2024-01-11T12:33:06.869Z,97262.00
2024-01-11T12:34:38.808Z,97274.19
2024-01-11T12:36:11.280Z,97271.56
2024-01-11T12:37:52.520Z,97271.00
2024-01-11T12:39:25.940Z,97266.81
2024-01-11T12:40:57.754Z,97275.91
2024-01-11T12:42:29.535Z,97274.06
2024-01-11T12:44:01.458Z,97273.25
2024-01-11T12:45:34.904Z,97270.34
2024-01-11T12:47:06.936Z,97278.00
2024-01-11T12:48:38.722Z,97271.00
2024-01-11T12:50:10.941Z,97278.16
2024-01-11T12:51:42.709Z,97275.06
2024-01-11T12:53:20.924Z,97281.09
2024-01-11T12:54:53.337Z,97277.41
2024-01-11T12:56:25.946Z,97278.97
2024-01-11T12:58:05.046Z,97284.19
2024-01-11T12:59:36.860Z,97289.88
2024-01-11T13:01:10.335Z,97287.84
2024-01-11T13:02:44.104Z,97282.75
2024-01-11T13:04:16.218Z,97287.06
2024-01-11T13:05:48.160Z,97282.53
2024-01-11T13:07:20.257Z,97290.69
2024-01-11T13:08:52.125Z,97274.44
2024-01-11T13:10:28.946Z,97277.44
2024-01-11T13:12:01.081Z,97278.16
2024-01-11T13:13:32.734Z,97276.44
2024-01-11T13:15:05.941Z,97279.13
2024-01-11T13:16:38.974Z,97275.22
2024-01-11T13:18:10.909Z,97278.78
2024-01-11T13:19:42.727Z,97277.41
2024-01-11T13:21:15.021Z,97274.53
2024-01-11T13:22:46.738Z,97277.22
2024-01-11T13:24:18.460Z,97274.38
2024-01-11T13:25:53.633Z,97268.81
2024-01-11T13:27:25.606Z,97263.69
2024-01-11T13:28:57.356Z,97269.41
2024-01-11T13:30:29.064Z,97260.16
2024-01-11T13:32:04.533Z,97253.47
2024-01-11T13:33:38.696Z,97262.66
2024-01-11T13:35:10.486Z,97262.19
2024-01-11T13:36:42.145Z,97246.28
2024-01-11T13:38:25.287Z,97256.97
2024-01-11T13:39:57.401Z,97245.69
2024-01-11T13:41:29.209Z,97263.53
2024-01-11T13:43:01.041Z,97263.44
2024-01-11T13:44:34.182Z,97264.06
2024-01-11T13:46:05.912Z,97262.97
2024-01-11T13:47:39.121Z,97254.25
2024-01-11T13:49:11.389Z,97258.44
2024-01-11T13:50:44.044Z,97258.41
2024-01-11T13:52:15.863Z,97263.28
2024-01-11T13:53:48.214Z,97270.41
2024-01-11T13:55:22.238Z,97268.81
2024-01-11T13:56:54.115Z,97282.06
2024-01-11T13:58:25.733Z,97283.06
2024-01-11T13:59:57.799Z,97270.81
2024-01-11T14:01:29.399Z,97272.41
2024-01-11T14:03:04.792Z,97285.44
2024-01-11T14:04:36.828Z,97283.06
2024-01-11T14:06:08.708Z,97289.56
2024-01-11T14:07:40.896Z,97279.81
2024-01-11T14:09:13.682Z,97281.19
2024-01-11T14:10:45.383Z,97283.25
2024-01-11T14:12:17.054Z,97290.53
2024-01-11T14:13:49.216Z,97290.19
2024-01-11T14:15:20.915Z,97285.91
2024-01-11T14:16:52.866Z,97290.69
2024-01-11T14:18:26.173Z,97286.25
2024-01-11T14:19:58.209Z,97287.06
2024-01-11T14:21:30.161Z,97289.25
2024-01-11T14:23:01.860Z,97280.06
2024-01-11T14:24:36.707Z,97283.22
2024-01-11T14:26:08.715Z,97282.28
2024-01-11T14:27:40.686Z,97279.44
2024-01-11T14:29:12.520Z,97293.03
2024-01-11T14:30:44.197Z,97287.38
2024-01-11T14:32:25.472Z,97298.75
2024-01-11T14:34:03.208Z,97298.03
2024-01-11T14:35:34.996Z,97292.50
2024-01-11T14:37:06.749Z,97287.81
2024-01-11T14:38:39.257Z,97292.72
2024-01-11T14:40:14.173Z,97291.06
2024-01-11T14:41:46.836Z,97294.78
2024-01-11T14:43:18.562Z,97293.38
2024-01-11T14:44:50.504Z,97286.97
2024-01-11T14:46:23.181Z,97286.88
2024-01-11T14:47:55.773Z,97278.31
2024-01-11T14:49:29.677Z,97271.69
2024-01-11T14:51:01.421Z,97281.81
2024-01-11T14:52:33.381Z,97274.81
2024-01-11T14:54:05.356Z,97272.63
2024-01-11T14:55:37.126Z,97275.97
2024-01-11T14:57:09.322Z,97271.69
2024-01-11T14:58:41.144Z,97275.03
2024-01-11T15:00:14.436Z,97275.22
2024-01-11T15:01:47.042Z,97280.00
2024-01-11T15:03:20.991Z,97281.09
2024-01-11T15:04:54.189Z,97287.44
2024-01-11T15:06:25.943Z,97282.44
2024-01-11T15:07:57.823Z,97301.75
2024-01-11T15:09:29.999Z,97301.28
2024-01-11T15:11:01.652Z,97311.09
2024-01-11T15:12:33.300Z,97307.22
2024-01-11T15:14:06.603Z,97310.06
2024-01-11T15:15:40.548Z,97316.25
2024-01-11T15:17:12.537Z,97323.44
2024-01-11T15:18:44.429Z,97319.66
2024-01-11T15:20:20.499Z,97319.72
2024-01-11T15:21:53.683Z,97327.81
2024-01-11T15:23:25.868Z,97324.66
2024-01-11T15:24:57.663Z,97321.56
2024-01-11T15:26:29.551Z,97319.56
2024-01-11T15:28:01.299Z,97322.50
2024-01-11T15:29:33.081Z,97317.91
2024-01-11T15:31:04.951Z,97323.75
2024-01-11T15:32:37.255Z,97322.47
2024-01-11T15:34:09.248Z,97327.34
2024-01-11T15:35:44.213Z,97330.66
2024-01-11T15:37:15.899Z,97329.16
2024-01-11T15:38:47.746Z,97327.66
2024-01-11T15:40:19.974Z,97335.47
2024-01-11T15:41:51.710Z,97332.22
2024-01-11T15:43:23.489Z,97339.66
2024-01-11T15:44:55.331Z,97346.47
2024-01-11T15:46:27.161Z,97342.75
2024-01-11T15:47:58.900Z,97344.66
2024-01-11T15:49:30.702Z,97353.06
2024-01-11T15:51:05.502Z,97355.44
2024-01-11T15:52:37.531Z,97356.53
2024-01-11T15:54:09.362Z,97359.53
2024-01-11T15:55:41.118Z,97366.81
2024-01-11T15:57:13.945Z,97366.19
2024-01-11T15:58:46.777Z,97355.91
2024-01-11T16:00:18.685Z,97353.84
2024-01-11T16:01:56.864Z,97356.84
2024-01-11T16:03:35.736Z,97356.78
2024-01-11T16:05:08.455Z,97360.16
2024-01-11T16:06:43.600Z,97363.81
2024-01-11T16:08:15.501Z,97356.53
2024-01-11T16:09:47.232Z,97352.34
2024-01-11T16:11:21.493Z,97359.69
2024-01-11T16:12:55.763Z,97366.97
2024-01-11T16:14:28.394Z,97365.75
2024-01-11T16:16:00.445Z,97365.28
2024-01-11T16:17:34.069Z,97368.09
2024-01-11T16:19:06.454Z,97378.28
2024-01-11T16:20:38.552Z,97375.84
2024-01-11T16:22:11.676Z,97375.84
2024-01-11T16:23:43.591Z,97374.75
2024-01-11T16:25:15.447Z,97384.94
2024-01-11T16:26:47.312Z,97386.69
2024-01-11T16:28:19.405Z,97382.97
2024-01-11T16:29:51.340Z,97380.28
2024-01-11T16:31:26.201Z,97386.78
2024-01-11T16:32:58.727Z,97393.50
2024-01-11T16:34:30.489Z,97397.69
2024-01-11T16:36:04.299Z,97408.63
2024-01-11T16:37:37.390Z,97414.41
2024-01-11T16:39:10.809Z,97412.25
2024-01-11T16:40:44.649Z,97406.72
2024-01-11T16:42:16.394Z,97405.06
2024-01-11T16:43:48.149Z,97401.34
2024-01-11T16:45:20.177Z,97409.00
2024-01-11T16:46:53.402Z,97409.66
2024-01-11T16:48:25.213Z,97408.63
2024-01-11T16:49:56.809Z,97405.69
2024-01-11T16:51:29.504Z,97405.81
2024-01-11T16:53:02.664Z,97405.72
2024-01-11T16:54:36.562Z,97409.00
2024-01-11T16:56:08.353Z,97413.91
2024-01-11T16:57:40.023Z,97424.38
2024-01-11T16:59:12.111Z,97418.75
2024-01-11T17:00:45.524Z,97424.59
2024-01-11T17:02:17.259Z,97418.25
2024-01-11T17:03:48.948Z,97410.28
2024-01-11T17:05:23.950Z,97416.47
2024-01-11T17:06:55.999Z,97410.94
2024-01-11T17:08:30.243Z,97408.41
2024-01-11T17:10:01.950Z,97407.13
2024-01-11T17:11:34.037Z,97412.91
2024-01-11T17:13:05.931Z,97416.44
2024-01-11T17:14:37.682Z,97414.63
2024-01-11T17:16:09.559Z,97420.72
2024-01-11T17:17:41.260Z,97424.53
2024-01-11T17:19:12.923Z,97424.19
2024-01-11T17:20:44.598Z,97427.44
2024-01-11T17:22:17.623Z,97441.06
2024-01-11T17:23:50.578Z,97441.06
2024-01-11T17:25:22.534Z,97439.81
2024-01-11T17:26:54.292Z,97443.53
2024-01-11T17:28:31.662Z,97442.19
2024-01-11T17:30:19.083Z,97441.72
2024-01-11T17:31:50.806Z,97437.28
2024-01-11T17:33:23.002Z,97442.50
2024-01-11T17:34:56.694Z,97439.75
2024-01-11T17:36:28.659Z,97441.72
2024-01-11T17:38:00.335Z,97434.53
2024-01-11T17:39:33.417Z,97437.19
2024-01-11T17:41:05.537Z,97440.66
2024-01-11T17:42:37.838Z,97439.09
2024-01-11T17:44:13.546Z,97445.66
2024-01-11T17:45:45.620Z,97438.38
2024-01-11T17:47:17.421Z,97435.53
2024-01-11T17:48:49.185Z,97430.44
2024-01-11T17:50:21.614Z,97432.50
2024-01-11T17:51:57.104Z,97431.03
2024-01-11T17:53:29.134Z,97437.38
2024-01-11T17:55:03.082Z,97433.09
2024-01-11T17:56:39.152Z,97431.66
2024-01-11T17:58:11.133Z,97428.97
2024-01-11T17:59:44.142Z,97437.25
2024-01-11T18:01:20.890Z,97439.09
2024-01-11T18:02:53.017Z,97431.72
2024-01-11T18:04:24.836Z,97439.47
2024-01-11T18:05:56.770Z,97433.97
2024-01-11T18:07:28.441Z,97429.28
2024-01-11T18:09:00.184Z,97433.66
2024-01-11T18:10:36.004Z,97439.00
2024-01-11T18:12:08.087Z,97438.78
2024-01-11T18:13:39.735Z,97448.50
2024-01-11T18:15:11.539Z,97444.41